sensor_id;sensor_type;location;lat;lon;timestamp;P1;durP1;ratioP1;P2;durP2;ratioP2
76725;SDS011;65651;53.154;17.916;2023-07-29T00:01:42;9.00;;;4.20;;
76725;SDS011;65651;53.154;17.916;2023-07-29T00:04:13;5.90;;;4.50;;
76725;SDS011;65651;53.154;17.916;2023-07-29T00:06:42;6.30;;;4.80;;
76725;SDS011;65651;53.154;17.916;2023-07-29T00:09:09;7.30;;;6.30;;
76725;SDS011;65651;53.154;17.916;2023-07-29T00:11:36;23.30;;;21.20;;
76725;SDS011;65651;53.154;17.916;2023-07-29T00:14:06;22.50;;;20.40;;
76725;SDS011;65651;53.154;17.916;2023-07-29T00:16:36;21.60;;;19.60;;
76725;SDS011;65651;53.154;17.916;2023-07-29T00:19:06;18.50;;;16.80;;
76725;SDS011;65651;53.154;17.916;2023-07-29T00:21:38;13.60;;;12.20;;
76725;SDS011;65651;53.154;17.916;2023-07-29T00:24:08;9.90;;;8.50;;
76725;SDS011;65651;53.154;17.916;2023-07-29T00:26:36;11.40;;;6.60;;
76725;SDS011;65651;53.154;17.916;2023-07-29T00:29:07;6.60;;;5.90;;
76725;SDS011;65651;53.154;17.916;2023-07-29T00:31:35;6.10;;;5.50;;
76725;SDS011;65651;53.154;17.916;2023-07-29T00:34:08;8.00;;;6.00;;
76725;SDS011;65651;53.154;17.916;2023-07-29T00:36:43;8.10;;;6.00;;
76725;SDS011;65651;53.154;17.916;2023-07-29T00:39:11;6.80;;;5.00;;
76725;SDS011;65651;53.154;17.916;2023-07-29T00:41:39;5.60;;;4.90;;
76725;SDS011;65651;53.154;17.916;2023-07-29T00:44:07;7.40;;;4.70;;
76725;SDS011;65651;53.154;17.916;2023-07-29T00:46:38;7.20;;;4.70;;
76725;SDS011;65651;53.154;17.916;2023-07-29T00:49:09;5.50;;;4.90;;
76725;SDS011;65651;53.154;17.916;2023-07-29T00:51:36;7.90;;;5.30;;
76725;SDS011;65651;53.154;17.916;2023-07-29T00:54:03;7.90;;;5.40;;
76725;SDS011;65651;53.154;17.916;2023-07-29T00:56:31;7.60;;;5.40;;
76725;SDS011;65651;53.154;17.916;2023-07-29T00:58:58;6.70;;;5.10;;
76725;SDS011;65651;53.154;17.916;2023-07-29T01:01:31;6.00;;;5.20;;
76725;SDS011;65651;53.154;17.916;2023-07-29T01:04:03;6.20;;;4.70;;
76725;SDS011;65651;53.154;17.916;2023-07-29T01:12:08;6.90;;;5.70;;
76725;SDS011;65651;53.154;17.916;2023-07-29T01:17:55;5.50;;;4.90;;
76725;SDS011;65651;53.154;17.916;2023-07-29T01:20:26;9.90;;;5.30;;
76725;SDS011;65651;53.154;17.916;2023-07-29T01:22:56;5.80;;;4.90;;
76725;SDS011;65651;53.154;17.916;2023-07-29T01:25:24;7.10;;;5.20;;
76725;SDS011;65651;53.154;17.916;2023-07-29T01:27:55;8.20;;;5.60;;
76725;SDS011;65651;53.154;17.916;2023-07-29T01:30:35;7.40;;;5.80;;
76725;SDS011;65651;53.154;17.916;2023-07-29T01:33:14;7.10;;;5.30;;
76725;SDS011;65651;53.154;17.916;2023-07-29T01:35:52;6.30;;;5.10;;
76725;SDS011;65651;53.154;17.916;2023-07-29T01:38:29;6.50;;;5.30;;
76725;SDS011;65651;53.154;17.916;2023-07-29T01:41:02;6.50;;;5.00;;
76725;SDS011;65651;53.154;17.916;2023-07-29T01:43:32;6.60;;;5.50;;
76725;SDS011;65651;53.154;17.916;2023-07-29T01:46:03;8.90;;;5.60;;
76725;SDS011;65651;53.154;17.916;2023-07-29T01:48:30;7.70;;;5.50;;
76725;SDS011;65651;53.154;17.916;2023-07-29T01:51:01;8.40;;;5.00;;
76725;SDS011;65651;53.154;17.916;2023-07-29T01:53:28;7.10;;;5.50;;
76725;SDS011;65651;53.154;17.916;2023-07-29T01:55:57;7.20;;;5.20;;
76725;SDS011;65651;53.154;17.916;2023-07-29T01:58:25;7.90;;;5.50;;
76725;SDS011;65651;53.154;17.916;2023-07-29T02:00:52;8.10;;;5.90;;
76725;SDS011;65651;53.154;17.916;2023-07-29T02:03:22;7.80;;;5.40;;
76725;SDS011;65651;53.154;17.916;2023-07-29T02:05:49;7.70;;;5.80;;
76725;SDS011;65651;53.154;17.916;2023-07-29T02:08:16;6.20;;;5.10;;
76725;SDS011;65651;53.154;17.916;2023-07-29T02:10:45;6.30;;;4.40;;
76725;SDS011;65651;53.154;17.916;2023-07-29T02:13:13;5.80;;;5.10;;
76725;SDS011;65651;53.154;17.916;2023-07-29T02:15:43;8.10;;;5.70;;
76725;SDS011;65651;53.154;17.916;2023-07-29T02:18:11;7.30;;;5.70;;
76725;SDS011;65651;53.154;17.916;2023-07-29T02:20:38;8.30;;;4.60;;
76725;SDS011;65651;53.154;17.916;2023-07-29T02:23:06;5.20;;;4.00;;
76725;SDS011;65651;53.154;17.916;2023-07-29T02:25:35;5.50;;;4.50;;
76725;SDS011;65651;53.154;17.916;2023-07-29T02:28:03;6.40;;;5.70;;
76725;SDS011;65651;53.154;17.916;2023-07-29T02:30:33;8.20;;;6.50;;
76725;SDS011;65651;53.154;17.916;2023-07-29T02:33:03;7.20;;;5.80;;
76725;SDS011;65651;53.154;17.916;2023-07-29T02:35:31;7.00;;;4.90;;
76725;SDS011;65651;53.154;17.916;2023-07-29T02:38:01;5.00;;;4.10;;
76725;SDS011;65651;53.154;17.916;2023-07-29T02:40:28;5.00;;;4.20;;
76725;SDS011;65651;53.154;17.916;2023-07-29T02:42:57;7.70;;;4.80;;
76725;SDS011;65651;53.154;17.916;2023-07-29T02:45:28;7.70;;;4.90;;
76725;SDS011;65651;53.154;17.916;2023-07-29T02:47:57;7.50;;;5.30;;
76725;SDS011;65651;53.154;17.916;2023-07-29T02:50:25;7.40;;;5.30;;
76725;SDS011;65651;53.154;17.916;2023-07-29T02:52:52;8.00;;;5.70;;
76725;SDS011;65651;53.154;17.916;2023-07-29T02:55:20;8.10;;;5.00;;
76725;SDS011;65651;53.154;17.916;2023-07-29T02:57:48;5.70;;;4.30;;
76725;SDS011;65651;53.154;17.916;2023-07-29T03:00:15;6.00;;;4.60;;
76725;SDS011;65651;53.154;17.916;2023-07-29T03:02:43;7.00;;;4.00;;
76725;SDS011;65651;53.154;17.916;2023-07-29T03:05:10;6.20;;;3.30;;
76725;SDS011;65651;53.154;17.916;2023-07-29T03:07:40;15.70;;;3.40;;
76725;SDS011;65651;53.154;17.916;2023-07-29T03:10:10;29.90;;;3.40;;
76725;SDS011;65651;53.154;17.916;2023-07-29T03:12:38;27.50;;;4.00;;
76725;SDS011;65651;53.154;17.916;2023-07-29T03:15:05;16.30;;;3.40;;
76725;SDS011;65651;53.154;17.916;2023-07-29T03:17:40;16.80;;;3.70;;
76725;SDS011;65651;53.154;17.916;2023-07-29T03:20:10;5.50;;;3.30;;
76725;SDS011;65651;53.154;17.916;2023-07-29T03:22:38;9.60;;;2.60;;
76725;SDS011;65651;53.154;17.916;2023-07-29T03:25:13;6.30;;;3.50;;
76725;SDS011;65651;53.154;17.916;2023-07-29T03:27:41;6.10;;;3.50;;
76725;SDS011;65651;53.154;17.916;2023-07-29T03:30:12;6.50;;;2.90;;
76725;SDS011;65651;53.154;17.916;2023-07-29T03:32:43;10.70;;;3.60;;
76725;SDS011;65651;53.154;17.916;2023-07-29T03:35:14;4.30;;;3.00;;
76725;SDS011;65651;53.154;17.916;2023-07-29T03:37:42;8.80;;;4.40;;
76725;SDS011;65651;53.154;17.916;2023-07-29T03:40:10;3.80;;;3.30;;
76725;SDS011;65651;53.154;17.916;2023-07-29T03:42:38;3.80;;;3.10;;
76725;SDS011;65651;53.154;17.916;2023-07-29T03:45:05;5.10;;;3.80;;
76725;SDS011;65651;53.154;17.916;2023-07-29T03:47:33;4.20;;;3.70;;
76725;SDS011;65651;53.154;17.916;2023-07-29T03:50:01;9.00;;;3.70;;
76725;SDS011;65651;53.154;17.916;2023-07-29T03:52:31;4.90;;;3.90;;
76725;SDS011;65651;53.154;17.916;2023-07-29T03:55:01;4.90;;;3.80;;
76725;SDS011;65651;53.154;17.916;2023-07-29T03:57:29;4.80;;;3.70;;
76725;SDS011;65651;53.154;17.916;2023-07-29T03:59:58;5.70;;;3.60;;
76725;SDS011;65651;53.154;17.916;2023-07-29T04:02:28;5.40;;;4.10;;
76725;SDS011;65651;53.154;17.916;2023-07-29T04:04:55;5.00;;;3.40;;
76725;SDS011;65651;53.154;17.916;2023-07-29T04:07:23;6.30;;;4.00;;
76725;SDS011;65651;53.154;17.916;2023-07-29T04:09:50;6.20;;;4.90;;
76725;SDS011;65651;53.154;17.916;2023-07-29T04:12:19;7.80;;;6.10;;
76725;SDS011;65651;53.154;17.916;2023-07-29T04:14:51;6.80;;;5.80;;
76725;SDS011;65651;53.154;17.916;2023-07-29T04:17:21;6.40;;;3.20;;
76725;SDS011;65651;53.154;17.916;2023-07-29T04:20:00;4.90;;;3.60;;
76725;SDS011;65651;53.154;17.916;2023-07-29T04:22:33;7.10;;;3.50;;
76725;SDS011;65651;53.154;17.916;2023-07-29T04:25:03;5.80;;;3.50;;
76725;SDS011;65651;53.154;17.916;2023-07-29T04:27:31;5.30;;;3.60;;
76725;SDS011;65651;53.154;17.916;2023-07-29T04:29:59;21.20;;;3.80;;
76725;SDS011;65651;53.154;17.916;2023-07-29T04:32:29;9.40;;;3.70;;
76725;SDS011;65651;53.154;17.916;2023-07-29T04:34:57;7.20;;;3.80;;
76725;SDS011;65651;53.154;17.916;2023-07-29T04:37:24;5.50;;;4.60;;
76725;SDS011;65651;53.154;17.916;2023-07-29T04:39:54;5.50;;;4.40;;
76725;SDS011;65651;53.154;17.916;2023-07-29T04:42:23;6.90;;;4.90;;
76725;SDS011;65651;53.154;17.916;2023-07-29T04:44:53;10.00;;;6.00;;
76725;SDS011;65651;53.154;17.916;2023-07-29T04:47:20;9.50;;;5.10;;
76725;SDS011;65651;53.154;17.916;2023-07-29T04:49:51;13.70;;;5.40;;
76725;SDS011;65651;53.154;17.916;2023-07-29T04:52:19;12.10;;;5.60;;
76725;SDS011;65651;53.154;17.916;2023-07-29T04:54:50;13.40;;;6.10;;
76725;SDS011;65651;53.154;17.916;2023-07-29T04:57:27;13.00;;;7.30;;
76725;SDS011;65651;53.154;17.916;2023-07-29T04:59:56;10.40;;;6.80;;
76725;SDS011;65651;53.154;17.916;2023-07-29T05:02:26;12.00;;;6.70;;
76725;SDS011;65651;53.154;17.916;2023-07-29T05:04:56;9.50;;;6.60;;
76725;SDS011;65651;53.154;17.916;2023-07-29T05:07:24;10.50;;;7.10;;
76725;SDS011;65651;53.154;17.916;2023-07-29T05:09:51;11.40;;;6.40;;
76725;SDS011;65651;53.154;17.916;2023-07-29T05:12:19;12.50;;;6.60;;
76725;SDS011;65651;53.154;17.916;2023-07-29T05:14:46;8.40;;;6.40;;
76725;SDS011;65651;53.154;17.916;2023-07-29T05:17:14;10.50;;;6.90;;
76725;SDS011;65651;53.154;17.916;2023-07-29T05:19:41;9.00;;;6.50;;
76725;SDS011;65651;53.154;17.916;2023-07-29T05:22:09;8.00;;;5.40;;
76725;SDS011;65651;53.154;17.916;2023-07-29T05:24:40;6.50;;;5.40;;
76725;SDS011;65651;53.154;17.916;2023-07-29T05:27:11;8.10;;;5.40;;
76725;SDS011;65651;53.154;17.916;2023-07-29T05:29:38;8.00;;;5.30;;
76725;SDS011;65651;53.154;17.916;2023-07-29T05:32:08;8.90;;;5.50;;
76725;SDS011;65651;53.154;17.916;2023-07-29T05:34:38;7.30;;;5.60;;
76725;SDS011;65651;53.154;17.916;2023-07-29T05:37:15;5.60;;;5.10;;
76725;SDS011;65651;53.154;17.916;2023-07-29T05:39:45;6.30;;;5.70;;
76725;SDS011;65651;53.154;17.916;2023-07-29T05:42:15;7.10;;;5.20;;
76725;SDS011;65651;53.154;17.916;2023-07-29T05:44:42;6.10;;;5.00;;
76725;SDS011;65651;53.154;17.916;2023-07-29T05:47:18;5.10;;;4.60;;
76725;SDS011;65651;53.154;17.916;2023-07-29T05:49:48;5.20;;;4.70;;
76725;SDS011;65651;53.154;17.916;2023-07-29T05:52:16;7.90;;;4.60;;
76725;SDS011;65651;53.154;17.916;2023-07-29T05:54:43;6.80;;;4.90;;
76725;SDS011;65651;53.154;17.916;2023-07-29T05:57:14;7.70;;;5.90;;
76725;SDS011;65651;53.154;17.916;2023-07-29T05:59:45;7.90;;;6.80;;
76725;SDS011;65651;53.154;17.916;2023-07-29T06:02:13;9.40;;;6.80;;
76725;SDS011;65651;53.154;17.916;2023-07-29T06:04:48;7.50;;;6.70;;
76725;SDS011;65651;53.154;17.916;2023-07-29T06:07:16;7.10;;;6.40;;
76725;SDS011;65651;53.154;17.916;2023-07-29T06:09:50;9.20;;;6.60;;
76725;SDS011;65651;53.154;17.916;2023-07-29T06:12:24;8.60;;;5.20;;
76725;SDS011;65651;53.154;17.916;2023-07-29T06:14:52;5.70;;;5.10;;
76725;SDS011;65651;53.154;17.916;2023-07-29T06:17:23;6.20;;;4.40;;
76725;SDS011;65651;53.154;17.916;2023-07-29T06:19:50;5.30;;;4.80;;
76725;SDS011;65651;53.154;17.916;2023-07-29T06:22:18;5.00;;;3.70;;
76725;SDS011;65651;53.154;17.916;2023-07-29T06:24:48;3.50;;;3.20;;
76725;SDS011;65651;53.154;17.916;2023-07-29T06:27:24;3.50;;;3.20;;
76725;SDS011;65651;53.154;17.916;2023-07-29T06:29:57;3.30;;;3.00;;
76725;SDS011;65651;53.154;17.916;2023-07-29T06:32:24;3.40;;;2.50;;
76725;SDS011;65651;53.154;17.916;2023-07-29T06:34:51;8.60;;;3.40;;
76725;SDS011;65651;53.154;17.916;2023-07-29T06:37:21;6.50;;;4.10;;
76725;SDS011;65651;53.154;17.916;2023-07-29T06:39:56;3.90;;;3.50;;
76725;SDS011;65651;53.154;17.916;2023-07-29T06:42:23;6.20;;;3.40;;
76725;SDS011;65651;53.154;17.916;2023-07-29T06:44:54;2.80;;;2.30;;
76725;SDS011;65651;53.154;17.916;2023-07-29T06:47:21;2.30;;;2.10;;
76725;SDS011;65651;53.154;17.916;2023-07-29T06:49:51;2.30;;;2.00;;
76725;SDS011;65651;53.154;17.916;2023-07-29T06:52:20;2.60;;;2.20;;
76725;SDS011;65651;53.154;17.916;2023-07-29T06:54:50;2.20;;;1.90;;
76725;SDS011;65651;53.154;17.916;2023-07-29T06:57:18;2.30;;;2.10;;
76725;SDS011;65651;53.154;17.916;2023-07-29T06:59:52;2.30;;;2.10;;
76725;SDS011;65651;53.154;17.916;2023-07-29T07:02:20;2.80;;;2.40;;
76725;SDS011;65651;53.154;17.916;2023-07-29T07:04:47;2.10;;;2.00;;
76725;SDS011;65651;53.154;17.916;2023-07-29T07:07:16;2.20;;;2.00;;
76725;SDS011;65651;53.154;17.916;2023-07-29T07:09:43;2.70;;;1.80;;
76725;SDS011;65651;53.154;17.916;2023-07-29T07:12:20;2.30;;;2.00;;
76725;SDS011;65651;53.154;17.916;2023-07-29T07:14:48;2.40;;;1.60;;
76725;SDS011;65651;53.154;17.916;2023-07-29T07:17:18;2.40;;;1.70;;
76725;SDS011;65651;53.154;17.916;2023-07-29T07:19:45;3.10;;;1.40;;
76725;SDS011;65651;53.154;17.916;2023-07-29T07:22:13;1.80;;;1.70;;
76725;SDS011;65651;53.154;17.916;2023-07-29T07:24:41;1.70;;;1.30;;
76725;SDS011;65651;53.154;17.916;2023-07-29T07:27:08;1.60;;;1.50;;
76725;SDS011;65651;53.154;17.916;2023-07-29T07:29:35;1.80;;;1.70;;
76725;SDS011;65651;53.154;17.916;2023-07-29T07:32:03;2.60;;;1.50;;
76725;SDS011;65651;53.154;17.916;2023-07-29T07:34:33;4.30;;;1.40;;
76725;SDS011;65651;53.154;17.916;2023-07-29T07:37:04;2.40;;;1.60;;
76725;SDS011;65651;53.154;17.916;2023-07-29T07:39:34;2.30;;;1.50;;
76725;SDS011;65651;53.154;17.916;2023-07-29T07:42:03;1.50;;;1.30;;
76725;SDS011;65651;53.154;17.916;2023-07-29T07:44:31;2.30;;;1.20;;
76725;SDS011;65651;53.154;17.916;2023-07-29T07:47:04;2.60;;;1.80;;
76725;SDS011;65651;53.154;17.916;2023-07-29T07:49:38;1.60;;;1.40;;
76725;SDS011;65651;53.154;17.916;2023-07-29T07:52:06;3.10;;;1.40;;
76725;SDS011;65651;53.154;17.916;2023-07-29T07:54:33;1.50;;;1.30;;
76725;SDS011;65651;53.154;17.916;2023-07-29T07:57:00;1.70;;;1.30;;
76725;SDS011;65651;53.154;17.916;2023-07-29T07:59:30;2.20;;;1.20;;
76725;SDS011;65651;53.154;17.916;2023-07-29T08:02:04;4.30;;;4.00;;
76725;SDS011;65651;53.154;17.916;2023-07-29T08:04:32;2.60;;;1.40;;
76725;SDS011;65651;53.154;17.916;2023-07-29T08:07:02;1.90;;;1.20;;
76725;SDS011;65651;53.154;17.916;2023-07-29T08:09:30;1.90;;;1.70;;
76725;SDS011;65651;53.154;17.916;2023-07-29T08:11:58;2.10;;;1.40;;
76725;SDS011;65651;53.154;17.916;2023-07-29T08:14:28;1.50;;;1.20;;
76725;SDS011;65651;53.154;17.916;2023-07-29T08:16:56;2.10;;;1.50;;
76725;SDS011;65651;53.154;17.916;2023-07-29T08:19:23;1.60;;;1.50;;
76725;SDS011;65651;53.154;17.916;2023-07-29T08:21:51;1.90;;;1.50;;
76725;SDS011;65651;53.154;17.916;2023-07-29T08:24:21;1.20;;;1.10;;
76725;SDS011;65651;53.154;17.916;2023-07-29T08:26:51;2.90;;;1.20;;
76725;SDS011;65651;53.154;17.916;2023-07-29T08:29:19;1.70;;;1.40;;
76725;SDS011;65651;53.154;17.916;2023-07-29T08:31:46;2.00;;;1.60;;
76725;SDS011;65651;53.154;17.916;2023-07-29T08:34:13;3.60;;;2.70;;
76725;SDS011;65651;53.154;17.916;2023-07-29T08:36:41;3.90;;;2.70;;
76725;SDS011;65651;53.154;17.916;2023-07-29T08:39:09;1.40;;;1.30;;
76725;SDS011;65651;53.154;17.916;2023-07-29T08:41:49;3.40;;;1.40;;
76725;SDS011;65651;53.154;17.916;2023-07-29T08:44:31;3.90;;;1.30;;
76725;SDS011;65651;53.154;17.916;2023-07-29T08:47:03;2.70;;;1.60;;
76725;SDS011;65651;53.154;17.916;2023-07-29T08:49:32;2.00;;;1.20;;
76725;SDS011;65651;53.154;17.916;2023-07-29T08:52:00;1.60;;;1.40;;
76725;SDS011;65651;53.154;17.916;2023-07-29T08:54:28;1.60;;;1.00;;
76725;SDS011;65651;53.154;17.916;2023-07-29T08:56:55;1.90;;;1.60;;
76725;SDS011;65651;53.154;17.916;2023-07-29T08:59:26;1.70;;;1.30;;
76725;SDS011;65651;53.154;17.916;2023-07-29T09:02:00;2.10;;;1.00;;
76725;SDS011;65651;53.154;17.916;2023-07-29T09:04:28;2.70;;;1.20;;
76725;SDS011;65651;53.154;17.916;2023-07-29T09:06:56;1.40;;;1.30;;
76725;SDS011;65651;53.154;17.916;2023-07-29T09:09:26;2.60;;;1.40;;
76725;SDS011;65651;53.154;17.916;2023-07-29T09:11:54;1.70;;;1.40;;
76725;SDS011;65651;53.154;17.916;2023-07-29T09:14:21;2.40;;;1.30;;
76725;SDS011;65651;53.154;17.916;2023-07-29T09:16:52;1.40;;;1.20;;
76725;SDS011;65651;53.154;17.916;2023-07-29T09:19:20;4.10;;;1.50;;
76725;SDS011;65651;53.154;17.916;2023-07-29T09:21:50;1.50;;;1.20;;
76725;SDS011;65651;53.154;17.916;2023-07-29T09:24:18;1.60;;;1.30;;
76725;SDS011;65651;53.154;17.916;2023-07-29T09:26:48;2.30;;;1.90;;
76725;SDS011;65651;53.154;17.916;2023-07-29T09:29:22;3.80;;;1.60;;
76725;SDS011;65651;53.154;17.916;2023-07-29T09:31:50;2.00;;;1.20;;
76725;SDS011;65651;53.154;17.916;2023-07-29T09:34:17;2.20;;;1.00;;
76725;SDS011;65651;53.154;17.916;2023-07-29T09:36:46;2.50;;;1.60;;
76725;SDS011;65651;53.154;17.916;2023-07-29T09:39:14;3.90;;;1.40;;
76725;SDS011;65651;53.154;17.916;2023-07-29T09:41:45;1.50;;;1.40;;
76725;SDS011;65651;53.154;17.916;2023-07-29T09:44:17;5.50;;;1.60;;
76725;SDS011;65651;53.154;17.916;2023-07-29T09:46:46;1.90;;;1.20;;
76725;SDS011;65651;53.154;17.916;2023-07-29T09:49:16;2.80;;;0.90;;
76725;SDS011;65651;53.154;17.916;2023-07-29T09:51:44;1.60;;;0.90;;
76725;SDS011;65651;53.154;17.916;2023-07-29T09:54:12;2.10;;;0.80;;
76725;SDS011;65651;53.154;17.916;2023-07-29T09:56:44;1.40;;;1.10;;
76725;SDS011;65651;53.154;17.916;2023-07-29T09:59:11;1.50;;;1.10;;
76725;SDS011;65651;53.154;17.916;2023-07-29T10:01:40;1.40;;;1.20;;
76725;SDS011;65651;53.154;17.916;2023-07-29T10:04:08;1.40;;;1.10;;
76725;SDS011;65651;53.154;17.916;2023-07-29T10:06:35;5.10;;;1.20;;
76725;SDS011;65651;53.154;17.916;2023-07-29T10:09:06;3.30;;;1.30;;
76725;SDS011;65651;53.154;17.916;2023-07-29T10:11:33;1.10;;;1.00;;
76725;SDS011;65651;53.154;17.916;2023-07-29T10:14:02;5.10;;;1.30;;
76725;SDS011;65651;53.154;17.916;2023-07-29T10:16:29;1.90;;;1.20;;
76725;SDS011;65651;53.154;17.916;2023-07-29T10:18:57;1.30;;;1.00;;
76725;SDS011;65651;53.154;17.916;2023-07-29T10:21:24;1.60;;;1.10;;
76725;SDS011;65651;53.154;17.916;2023-07-29T10:23:53;1.60;;;1.20;;
76725;SDS011;65651;53.154;17.916;2023-07-29T10:26:25;1.60;;;1.00;;
76725;SDS011;65651;53.154;17.916;2023-07-29T10:28:56;1.30;;;0.80;;
76725;SDS011;65651;53.154;17.916;2023-07-29T10:31:31;3.50;;;1.20;;
76725;SDS011;65651;53.154;17.916;2023-07-29T10:33:59;4.10;;;1.30;;
76725;SDS011;65651;53.154;17.916;2023-07-29T10:36:27;2.40;;;1.40;;
76725;SDS011;65651;53.154;17.916;2023-07-29T10:38:55;1.50;;;1.10;;
76725;SDS011;65651;53.154;17.916;2023-07-29T10:41:22;1.30;;;0.90;;
76725;SDS011;65651;53.154;17.916;2023-07-29T10:43:50;2.20;;;1.10;;
76725;SDS011;65651;53.154;17.916;2023-07-29T10:46:22;6.90;;;1.10;;
76725;SDS011;65651;53.154;17.916;2023-07-29T10:54:03;5.10;;;1.10;;
76725;SDS011;65651;53.154;17.916;2023-07-29T10:56:47;1.90;;;0.70;;
76725;SDS011;65651;53.154;17.916;2023-07-29T11:01:54;2.70;;;1.30;;
76725;SDS011;65651;53.154;17.916;2023-07-29T11:04:23;4.30;;;1.20;;
76725;SDS011;65651;53.154;17.916;2023-07-29T11:07:26;1.70;;;0.80;;
76725;SDS011;65651;53.154;17.916;2023-07-29T11:15:16;2.80;;;0.70;;
76725;SDS011;65651;53.154;17.916;2023-07-29T11:20:16;1.90;;;0.90;;
76725;SDS011;65651;53.154;17.916;2023-07-29T11:22:44;1.90;;;1.20;;
76725;SDS011;65651;53.154;17.916;2023-07-29T11:25:12;1.40;;;0.90;;
76725;SDS011;65651;53.154;17.916;2023-07-29T11:27:41;0.90;;;0.50;;
76725;SDS011;65651;53.154;17.916;2023-07-29T11:30:09;1.10;;;0.70;;
76725;SDS011;65651;53.154;17.916;2023-07-29T11:32:39;2.00;;;0.50;;
76725;SDS011;65651;53.154;17.916;2023-07-29T11:35:08;1.70;;;0.80;;
76725;SDS011;65651;53.154;17.916;2023-07-29T11:37:43;3.40;;;0.80;;
76725;SDS011;65651;53.154;17.916;2023-07-29T11:40:18;2.70;;;1.00;;
76725;SDS011;65651;53.154;17.916;2023-07-29T11:42:53;0.80;;;0.50;;
76725;SDS011;65651;53.154;17.916;2023-07-29T11:45:21;2.20;;;0.60;;
76725;SDS011;65651;53.154;17.916;2023-07-29T11:47:50;2.40;;;0.60;;
76725;SDS011;65651;53.154;17.916;2023-07-29T11:50:17;2.30;;;0.70;;
76725;SDS011;65651;53.154;17.916;2023-07-29T11:52:45;2.00;;;0.80;;
76725;SDS011;65651;53.154;17.916;2023-07-29T11:55:14;3.30;;;1.30;;
76725;SDS011;65651;53.154;17.916;2023-07-29T11:57:42;4.50;;;1.80;;
76725;SDS011;65651;53.154;17.916;2023-07-29T12:00:11;2.60;;;0.90;;
76725;SDS011;65651;53.154;17.916;2023-07-29T12:02:39;4.70;;;0.90;;
76725;SDS011;65651;53.154;17.916;2023-07-29T12:05:08;2.50;;;1.00;;
76725;SDS011;65651;53.154;17.916;2023-07-29T12:07:40;1.70;;;1.40;;
76725;SDS011;65651;53.154;17.916;2023-07-29T12:10:09;2.70;;;1.30;;
76725;SDS011;65651;53.154;17.916;2023-07-29T12:12:44;1.90;;;0.90;;
76725;SDS011;65651;53.154;17.916;2023-07-29T12:15:24;1.30;;;0.80;;
76725;SDS011;65651;53.154;17.916;2023-07-29T12:17:53;1.50;;;0.90;;
76725;SDS011;65651;53.154;17.916;2023-07-29T12:20:23;2.50;;;0.70;;
76725;SDS011;65651;53.154;17.916;2023-07-29T12:22:57;1.60;;;0.90;;
76725;SDS011;65651;53.154;17.916;2023-07-29T12:25:28;2.40;;;0.90;;
76725;SDS011;65651;53.154;17.916;2023-07-29T12:27:55;1.60;;;1.10;;
76725;SDS011;65651;53.154;17.916;2023-07-29T12:30:23;2.10;;;1.00;;
76725;SDS011;65651;53.154;17.916;2023-07-29T12:32:52;2.30;;;1.40;;
76725;SDS011;65651;53.154;17.916;2023-07-29T12:35:19;3.00;;;1.70;;
76725;SDS011;65651;53.154;17.916;2023-07-29T12:37:47;1.50;;;0.80;;
76725;SDS011;65651;53.154;17.916;2023-07-29T12:40:25;1.60;;;1.30;;
76725;SDS011;65651;53.154;17.916;2023-07-29T12:42:53;4.40;;;1.30;;
76725;SDS011;65651;53.154;17.916;2023-07-29T12:45:22;2.10;;;0.70;;
76725;SDS011;65651;53.154;17.916;2023-07-29T12:47:53;1.30;;;0.80;;
76725;SDS011;65651;53.154;17.916;2023-07-29T12:50:20;2.60;;;1.30;;
76725;SDS011;65651;53.154;17.916;2023-07-29T12:52:48;2.90;;;1.10;;
76725;SDS011;65651;53.154;17.916;2023-07-29T12:55:15;1.70;;;1.20;;
76725;SDS011;65651;53.154;17.916;2023-07-29T12:57:42;5.20;;;1.50;;
76725;SDS011;65651;53.154;17.916;2023-07-29T13:00:10;1.90;;;1.40;;
76725;SDS011;65651;53.154;17.916;2023-07-29T13:02:38;2.20;;;1.30;;
76725;SDS011;65651;53.154;17.916;2023-07-29T13:05:08;2.00;;;1.50;;
76725;SDS011;65651;53.154;17.916;2023-07-29T13:07:40;1.60;;;1.30;;
76725;SDS011;65651;53.154;17.916;2023-07-29T13:10:09;1.50;;;1.30;;
76725;SDS011;65651;53.154;17.916;2023-07-29T13:12:41;1.70;;;1.60;;
76725;SDS011;65651;53.154;17.916;2023-07-29T13:15:08;2.30;;;1.20;;
76725;SDS011;65651;53.154;17.916;2023-07-29T13:17:36;2.00;;;1.70;;
76725;SDS011;65651;53.154;17.916;2023-07-29T13:20:04;2.00;;;1.30;;
76725;SDS011;65651;53.154;17.916;2023-07-29T13:22:33;1.80;;;1.00;;
76725;SDS011;65651;53.154;17.916;2023-07-29T13:25:00;1.30;;;0.90;;
76725;SDS011;65651;53.154;17.916;2023-07-29T13:27:28;1.70;;;1.00;;
76725;SDS011;65651;53.154;17.916;2023-07-29T13:29:55;2.10;;;1.30;;
76725;SDS011;65651;53.154;17.916;2023-07-29T13:32:23;2.00;;;1.60;;
76725;SDS011;65651;53.154;17.916;2023-07-29T13:34:50;4.20;;;2.10;;
76725;SDS011;65651;53.154;17.916;2023-07-29T13:37:18;1.90;;;1.60;;
76725;SDS011;65651;53.154;17.916;2023-07-29T13:39:46;4.00;;;1.50;;
76725;SDS011;65651;53.154;17.916;2023-07-29T13:42:13;3.30;;;1.70;;
76725;SDS011;65651;53.154;17.916;2023-07-29T13:44:40;2.30;;;1.50;;
76725;SDS011;65651;53.154;17.916;2023-07-29T13:47:07;2.90;;;2.20;;
76725;SDS011;65651;53.154;17.916;2023-07-29T13:49:35;1.80;;;1.30;;
76725;SDS011;65651;53.154;17.916;2023-07-29T13:52:02;2.20;;;1.50;;
76725;SDS011;65651;53.154;17.916;2023-07-29T13:54:29;3.50;;;1.20;;
76725;SDS011;65651;53.154;17.916;2023-07-29T13:56:57;1.50;;;1.20;;
76725;SDS011;65651;53.154;17.916;2023-07-29T13:59:24;4.80;;;1.30;;
76725;SDS011;65651;53.154;17.916;2023-07-29T14:01:52;6.80;;;1.40;;
76725;SDS011;65651;53.154;17.916;2023-07-29T14:04:19;2.20;;;1.50;;
76725;SDS011;65651;53.154;17.916;2023-07-29T14:06:46;2.60;;;1.40;;
76725;SDS011;65651;53.154;17.916;2023-07-29T14:09:13;1.50;;;1.30;;
76725;SDS011;65651;53.154;17.916;2023-07-29T14:11:41;2.30;;;1.80;;
76725;SDS011;65651;53.154;17.916;2023-07-29T14:14:11;3.90;;;1.90;;
76725;SDS011;65651;53.154;17.916;2023-07-29T14:16:38;3.70;;;2.10;;
76725;SDS011;65651;53.154;17.916;2023-07-29T14:19:05;2.40;;;2.00;;
76725;SDS011;65651;53.154;17.916;2023-07-29T14:21:32;5.60;;;3.10;;
76725;SDS011;65651;53.154;17.916;2023-07-29T14:24:00;4.60;;;1.90;;
76725;SDS011;65651;53.154;17.916;2023-07-29T14:26:27;2.70;;;1.90;;
76725;SDS011;65651;53.154;17.916;2023-07-29T14:28:54;2.70;;;1.60;;
76725;SDS011;65651;53.154;17.916;2023-07-29T14:31:26;3.40;;;2.00;;
76725;SDS011;65651;53.154;17.916;2023-07-29T14:33:53;2.20;;;1.40;;
76725;SDS011;65651;53.154;17.916;2023-07-29T14:36:20;1.90;;;1.60;;
76725;SDS011;65651;53.154;17.916;2023-07-29T14:38:47;3.20;;;1.80;;
76725;SDS011;65651;53.154;17.916;2023-07-29T14:41:14;3.70;;;2.70;;
76725;SDS011;65651;53.154;17.916;2023-07-29T14:43:41;5.70;;;4.30;;
76725;SDS011;65651;53.154;17.916;2023-07-29T14:46:09;3.50;;;2.20;;
76725;SDS011;65651;53.154;17.916;2023-07-29T14:48:36;2.30;;;1.90;;
76725;SDS011;65651;53.154;17.916;2023-07-29T14:51:03;5.40;;;2.00;;
76725;SDS011;65651;53.154;17.916;2023-07-29T14:53:30;5.60;;;2.10;;
76725;SDS011;65651;53.154;17.916;2023-07-29T14:55:57;1.80;;;1.40;;
76725;SDS011;65651;53.154;17.916;2023-07-29T14:58:24;2.10;;;1.60;;
76725;SDS011;65651;53.154;17.916;2023-07-29T15:00:52;2.00;;;1.70;;
76725;SDS011;65651;53.154;17.916;2023-07-29T15:03:19;3.00;;;1.80;;
76725;SDS011;65651;53.154;17.916;2023-07-29T15:05:48;5.70;;;1.50;;
76725;SDS011;65651;53.154;17.916;2023-07-29T15:08:15;3.70;;;1.70;;
76725;SDS011;65651;53.154;17.916;2023-07-29T15:10:47;1.90;;;1.70;;